Time;durP1;ratioP1;P1;durP2;ratioP2;P2;SDS_P1;SDS_P2;PMS_P1;PMS_P2;Temp;Humidity;BMP_temperature;BMP_pressure;BME280_temperature;BME280_humidity;BME280_pressure;Samples;Min_cycle;Max_cycle;Signal;HPM_P1;HPM_P2
2022/11/14 00:00:28;;;;;;;14.88;6.20;;;4.80;99.90;;;;;;5001061;28;20384;-83
2022/11/14 00:02:55;;;;;;;11.45;5.63;;;4.80;99.90;;;;;;5018854;28;20064;-82
2022/11/14 00:05:21;;;;;;;13.48;6.10;;;4.80;99.90;;;;;;5018752;28;20111;-82
2022/11/14 00:07:46;;;;;;;14.65;6.20;;;4.90;99.90;;;;;;5018719;28;20030;-82
2022/11/14 00:10:13;;;;;;;12.90;6.55;;;4.90;99.90;;;;;;5001272;28;20108;-82
2022/11/14 00:12:39;;;;;;;12.05;5.88;;;4.90;99.90;;;;;;5001047;28;20448;-81
2022/11/14 00:15:06;;;;;;;13.95;5.90;;;4.90;99.90;;;;;;5001132;28;20045;-82
2022/11/14 00:17:34;;;;;;;13.40;6.22;;;4.90;99.90;;;;;;5001112;28;20061;-82
2022/11/14 00:20:00;;;;;;;10.80;6.03;;;4.90;99.90;;;;;;5018913;28;20022;-82
2022/11/14 00:22:25;;;;;;;13.40;7.05;;;4.90;99.90;;;;;;5001064;28;20440;-82
2022/11/14 00:24:51;;;;;;;12.98;6.85;;;5.00;99.90;;;;;;5000514;28;20037;-82
2022/11/14 00:27:17;;;;;;;13.38;6.25;;;5.00;99.90;;;;;;5018852;28;20045;-82
2022/11/14 00:29:42;;;;;;;13.63;6.38;;;5.00;99.90;;;;;;5016939;28;20045;-82
2022/11/14 00:32:08;;;;;;;10.88;6.00;;;5.00;99.90;;;;;;5016958;28;20056;-82
2022/11/14 00:34:33;;;;;;;15.63;6.95;;;5.10;99.90;;;;;;5000689;28;20026;-83
2022/11/14 00:36:59;;;;;;;12.50;6.28;;;5.00;99.90;;;;;;5000825;28;20373;-82
2022/11/14 00:39:25;;;;;;;11.95;6.57;;;5.00;99.90;;;;;;5000769;28;20022;-82
2022/11/14 00:41:50;;;;;;;14.70;6.57;;;5.00;99.90;;;;;;5000748;28;20465;-81
2022/11/14 00:44:16;;;;;;;14.80;6.47;;;5.00;99.90;;;;;;5018353;28;20049;-82
2022/11/14 00:46:42;;;;;;;15.90;6.90;;;;;;;;;;5000121;28;20022;-81
2022/11/14 00:49:08;;;;;;;16.20;6.95;;;;;;;;;;5016685;28;20065;-83
2022/11/14 00:51:33;;;;;;;16.90;7.10;;;5.00;99.90;;;;;;5016698;28;20034;-82
2022/11/14 00:53:59;;;;;;;17.23;7.25;;;4.90;99.90;;;;;;5000394;28;20030;-81
2022/11/14 00:56:25;;;;;;;17.25;7.93;;;4.90;99.90;;;;;;5000627;28;20113;-81
2022/11/14 00:58:50;;;;;;;17.90;7.97;;;4.90;99.90;;;;;;5000735;28;20014;-82
2022/11/14 01:01:16;;;;;;;19.42;7.47;;;4.90;99.90;;;;;;5000623;28;20018;-81
2022/11/14 01:03:41;;;;;;;14.98;7.32;;;4.90;99.90;;;;;;5018870;28;20109;-82
2022/11/14 01:06:10;;;;;;;14.10;6.38;;;4.90;99.90;;;;;;5000726;28;20495;-82
2022/11/14 01:08:35;;;;;;;16.95;7.32;;;4.80;99.90;;;;;;5017177;28;20022;-81
2022/11/14 01:11:11;;;;;;;15.90;7.55;;;4.80;99.90;;;;;;5000889;28;20028;-81
2022/11/14 01:13:38;;;;;;;15.27;7.88;;;4.80;99.90;;;;;;5000838;28;20022;-82
2022/11/14 01:16:04;;;;;;;16.48;7.65;;;;;;;;;;5000986;28;20022;-81
2022/11/14 01:18:30;;;;;;;17.23;7.85;;;4.80;99.90;;;;;;5017411;28;20060;-82
2022/11/14 01:20:58;;;;;;;16.50;7.43;;;4.70;99.90;;;;;;5001020;28;20018;-81
2022/11/14 01:23:24;;;;;;;20.25;8.38;;;4.80;99.90;;;;;;5000838;28;20030;-82
2022/11/14 01:25:50;;;;;;;18.50;7.63;;;;;;;;;;5000191;28;20025;-83
2022/11/14 01:28:18;;;;;;;18.27;8.13;;;4.60;99.90;;;;;;5016859;28;20067;-82
2022/11/14 01:30:44;;;;;;;21.70;9.15;;;4.60;99.90;;;;;;5018077;28;20041;-82
2022/11/14 01:33:10;;;;;;;23.42;9.73;;;4.60;99.90;;;;;;5018105;28;20476;-83
2022/11/14 01:35:37;;;;;;;21.85;8.57;;;4.60;99.90;;;;;;5017734;28;20053;-80
2022/11/14 01:38:04;;;;;;;18.95;8.05;;;4.50;99.90;;;;;;5000799;28;20439;-81
2022/11/14 01:40:31;;;;;;;20.00;8.98;;;;;;;;;;5000067;28;20093;-80
2022/11/14 01:43:15;;;;;;;19.10;9.18;;;4.40;99.90;;;;;;5017433;28;20061;-81
2022/11/14 01:46:03;;;;;;;21.48;8.88;;;4.40;99.90;;;;;;5017148;28;20567;-80
2022/11/14 01:48:49;;;;;;;19.67;8.57;;;4.40;99.90;;;;;;5017802;28;20080;-81
2022/11/14 01:51:40;;;;;;;23.35;8.93;;;4.30;99.90;;;;;;5000783;28;20036;-82
2022/11/14 01:54:09;;;;;;;21.33;8.70;;;4.30;99.90;;;;;;5018239;28;20030;-82
2022/11/14 01:56:41;;;;;;;27.50;10.20;;;4.30;99.90;;;;;;5000798;28;20396;-81
2022/11/14 01:59:10;;;;;;;22.15;9.70;;;7.70;99.90;;;;;;5015601;28;20025;-81
2022/11/14 02:01:43;;;;;;;25.30;10.27;;;4.30;99.90;;;;;;5000379;28;20022;-80
2022/11/14 02:04:19;;;;;;;21.73;9.48;;;4.30;99.90;;;;;;5000415;28;20018;-82
2022/11/14 02:06:46;;;;;;;24.65;10.10;;;4.20;99.90;;;;;;5018032;28;20033;-80
2022/11/14 02:09:12;;;;;;;24.27;10.43;;;4.30;99.90;;;;;;4999983;28;20033;-82
2022/11/14 02:11:42;;;;;;;23.40;10.40;;;4.30;99.90;;;;;;5000014;28;20022;-82
2022/11/14 02:14:08;;;;;;;26.38;10.27;;;4.30;99.90;;;;;;5000163;28;20022;-81
2022/11/14 02:16:34;;;;;;;25.90;9.75;;;4.20;99.90;;;;;;5000538;28;20025;-81
2022/11/14 02:18:59;;;;;;;25.15;10.85;;;4.00;99.90;;;;;;5000844;28;20026;-80
2022/11/14 02:21:25;;;;;;;26.65;10.40;;;4.20;99.90;;;;;;5000065;28;20026;-81
2022/11/14 02:23:51;;;;;;;29.25;11.30;;;4.20;99.90;;;;;;5000701;28;20034;-80
2022/11/14 02:26:18;;;;;;;26.17;11.02;;;4.20;99.90;;;;;;5018221;28;20037;-81
2022/11/14 02:28:44;;;;;;;28.77;11.48;;;8.60;99.90;;;;;;5000102;28;20125;-82
2022/11/14 02:31:09;;;;;;;29.13;12.30;;;4.10;99.90;;;;;;5018779;28;20108;-81
2022/11/14 02:33:35;;;;;;;32.38;11.65;;;4.10;99.90;;;;;;5017956;28;20037;-81
2022/11/14 02:36:03;;;;;;;27.05;10.52;;;4.10;99.90;;;;;;5000777;28;20018;-81
2022/11/14 02:38:29;;;;;;;29.83;12.07;;;4.00;99.90;;;;;;5001363;28;20022;-80
2022/11/14 02:40:54;;;;;;;27.35;11.70;;;6.40;99.90;;;;;;5004439;28;20682;-81
2022/11/14 02:43:20;;;;;;;25.88;11.10;;;4.10;99.90;;;;;;5003272;28;20037;-81
2022/11/14 02:45:46;;;;;;;35.13;12.68;;;4.00;99.90;;;;;;5019832;28;20030;-82
2022/11/14 02:48:11;;;;;;;30.13;12.35;;;4.00;99.90;;;;;;5003109;28;20028;-81
2022/11/14 02:50:37;;;;;;;32.97;12.23;;;;;;;;;;5003440;28;20033;-81
2022/11/14 02:53:03;;;;;;;32.63;12.23;;;4.00;99.90;;;;;;5022752;28;20044;-81
2022/11/14 02:55:29;;;;;;;36.67;14.27;;;3.90;99.90;;;;;;5003853;28;20433;-81
2022/11/14 02:57:54;;;;;;;30.70;12.07;;;3.90;99.90;;;;;;5003948;28;20022;-80
2022/11/14 03:00:20;;;;;;;33.80;13.15;;;3.80;99.90;;;;;;5008536;28;20014;-81
2022/11/14 03:02:45;;;;;;;36.72;12.90;;;3.80;99.90;;;;;;5022650;28;20033;-81
2022/11/14 03:05:11;;;;;;;33.08;12.10;;;3.80;99.90;;;;;;5004491;28;20022;-81
2022/11/14 03:07:37;;;;;;;34.45;12.40;;;3.80;99.90;;;;;;5002256;28;20057;-81
2022/11/14 03:10:03;;;;;;;33.45;13.07;;;3.80;99.90;;;;;;5022859;28;20022;-81
2022/11/14 03:12:29;;;;;;;33.47;13.27;;;;;;;;;;5022381;28;20061;-80
2022/11/14 03:14:55;;;;;;;28.70;12.38;;;;;;;;;;5022686;28;20476;-80
2022/11/14 03:17:23;;;;;;;33.33;12.98;;;4.20;99.90;;;;;;5023690;28;20030;-81
2022/11/14 03:19:49;;;;;;;41.92;13.80;;;3.70;99.90;;;;;;5009268;28;20064;-80
2022/11/14 03:22:15;;;;;;;32.28;13.27;;;;;;;;;;5023155;28;20022;-81
2022/11/14 03:24:40;;;;;;;31.70;13.45;;;3.70;99.90;;;;;;5027018;28;20022;-81
2022/11/14 03:27:06;;;;;;;33.83;13.95;;;3.70;99.90;;;;;;5010413;28;20040;-82
2022/11/14 03:29:32;;;;;;;35.88;13.93;;;3.80;99.90;;;;;;5009438;28;20064;-81
2022/11/14 03:31:57;;;;;;;40.95;14.90;;;3.70;99.90;;;;;;5026347;28;20053;-81
2022/11/14 03:34:23;;;;;;;36.17;14.30;;;3.60;99.90;;;;;;5011790;28;20029;-80
2022/11/14 03:36:48;;;;;;;33.88;13.10;;;3.80;99.90;;;;;;5011817;28;20041;-80
2022/11/14 03:39:14;;;;;;;35.63;14.27;;;6.60;99.90;;;;;;5030470;28;20032;-81
2022/11/14 03:41:40;;;;;;;40.75;15.38;;;3.80;99.90;;;;;;5014462;28;20022;-81
2022/11/14 03:44:05;;;;;;;34.15;13.95;;;3.80;99.90;;;;;;4997924;28;20037;-79
2022/11/14 03:46:31;;;;;;;34.65;13.38;;;3.70;99.90;;;;;;5014674;28;20066;-78
2022/11/14 03:48:56;;;;;;;33.85;13.02;;;3.70;99.90;;;;;;5014250;28;20040;-78
2022/11/14 03:51:22;;;;;;;32.95;13.20;;;3.70;99.90;;;;;;5013933;28;20026;-79
2022/11/14 03:53:47;;;;;;;38.42;15.02;;;3.70;99.90;;;;;;4996456;28;20034;-79
2022/11/14 03:56:13;;;;;;;38.17;14.77;;;3.60;99.90;;;;;;4996295;28;20022;-78
2022/11/14 03:58:38;;;;;;;34.83;13.68;;;3.70;99.90;;;;;;5013882;28;20053;-78
2022/11/14 04:01:07;;;;;;;33.60;13.13;;;3.60;99.90;;;;;;5012722;28;20515;-78
2022/11/14 04:03:32;;;;;;;40.13;14.45;;;3.60;99.90;;;;;;5012601;28;20037;-78
2022/11/14 04:05:58;;;;;;;38.53;14.30;;;3.60;99.90;;;;;;5014419;28;20034;-78
2022/11/14 04:08:23;;;;;;;31.33;12.05;;;3.50;99.90;;;;;;5014290;28;20022;-78
2022/11/14 04:10:49;;;;;;;43.88;14.98;;;3.50;99.90;;;;;;5012696;28;20048;-78
2022/11/14 04:13:15;;;;;;;35.38;13.98;;;3.50;99.90;;;;;;5013921;28;20545;-78
2022/11/14 04:15:40;;;;;;;37.92;13.95;;;3.50;99.90;;;;;;5012560;28;20065;-78
2022/11/14 04:18:06;;;;;;;34.60;12.63;;;;;;;;;;5013840;28;20105;-78
2022/11/14 04:20:32;;;;;;;38.83;14.57;;;3.50;99.90;;;;;;5013885;28;20037;-78
2022/11/14 04:22:57;;;;;;;32.80;13.40;;;3.50;99.90;;;;;;5013929;28;20472;-77
2022/11/14 04:25:23;;;;;;;33.67;12.45;;;3.40;99.90;;;;;;4999741;28;20033;-77
2022/11/14 04:27:49;;;;;;;33.15;12.20;;;3.40;99.90;;;;;;5017248;28;20075;-77
2022/11/14 04:30:14;;;;;;;35.90;12.07;;;3.40;99.90;;;;;;5016974;28;20046;-78
2022/11/14 04:32:40;;;;;;;38.20;13.85;;;3.40;99.90;;;;;;5017188;28;20033;-78
2022/11/14 04:35:06;;;;;;;35.33;13.82;;;3.30;99.90;;;;;;5016676;28;20022;-78
2022/11/14 04:37:31;;;;;;;34.03;12.77;;;3.30;99.90;;;;;;5016882;28;20077;-78
2022/11/14 04:39:57;;;;;;;35.78;14.02;;;3.30;99.90;;;;;;5017462;28;20084;-78
2022/11/14 04:42:24;;;;;;;37.28;14.35;;;3.30;99.90;;;;;;4999043;28;20026;-78
2022/11/14 04:44:49;;;;;;;34.95;13.45;;;3.30;99.90;;;;;;5016871;28;20105;-78
2022/11/14 04:47:15;;;;;;;32.92;12.13;;;3.20;99.90;;;;;;5017103;28;20511;-78
2022/11/14 04:49:40;;;;;;;32.63;12.15;;;3.20;99.90;;;;;;5016686;28;20075;-78
2022/11/14 04:52:06;;;;;;;35.30;12.75;;;3.20;99.90;;;;;;5015662;28;20057;-78
2022/11/14 04:54:32;;;;;;;38.17;13.27;;;3.10;99.90;;;;;;4999241;28;20022;-78
2022/11/14 04:56:58;;;;;;;38.28;12.95;;;;;;;;;;5016873;28;20102;-77
2022/11/14 04:59:23;;;;;;;35.75;13.48;;;3.10;99.90;;;;;;5015476;28;20033;-78
2022/11/14 05:01:49;;;;;;;37.20;13.85;;;3.10;99.90;;;;;;5017151;28;20021;-78
2022/11/14 05:04:14;;;;;;;34.30;12.50;;;3.00;99.90;;;;;;5016724;28;20034;-78
2022/11/14 05:06:40;;;;;;;39.22;14.15;;;3.00;99.90;;;;;;5017101;28;20030;-78
2022/11/14 05:09:06;;;;;;;32.10;13.45;;;3.00;99.90;;;;;;4999002;28;20527;-78
2022/11/14 05:11:31;;;;;;;34.17;13.05;;;2.90;99.90;;;;;;4998906;28;20080;-78
2022/11/14 05:13:57;;;;;;;30.42;12.00;;;2.90;99.90;;;;;;5016129;28;20026;-78
2022/11/14 05:16:22;;;;;;;36.20;13.73;;;2.90;99.90;;;;;;5016282;28;20026;-78
2022/11/14 05:18:48;;;;;;;32.08;11.93;;;2.90;99.90;;;;;;4998846;28;20108;-78
2022/11/14 05:21:14;;;;;;;37.72;13.60;;;2.90;99.90;;;;;;4999037;28;20510;-79
2022/11/14 05:23:40;;;;;;;34.53;13.85;;;2.90;99.90;;;;;;5016166;28;20038;-77
2022/11/14 05:26:11;;;;;;;35.83;12.43;;;2.90;99.90;;;;;;4999281;28;20117;-79
2022/11/14 05:28:38;;;;;;;34.75;12.45;;;2.80;99.90;;;;;;4998431;28;20061;-78
2022/11/14 05:31:09;;;;;;;38.88;13.52;;;2.80;99.90;;;;;;5017330;28;20357;-78
2022/11/14 05:33:35;;;;;;;36.75;12.30;;;2.70;99.90;;;;;;5014952;28;20401;-78
2022/11/14 05:36:21;;;;;;;38.42;13.48;;;2.70;99.90;;;;;;5017010;28;20069;-77
2022/11/14 05:38:46;;;;;;;33.10;12.88;;;2.70;99.90;;;;;;4998786;28;20131;-77
2022/11/14 05:41:18;;;;;;;37.58;13.73;;;2.70;99.90;;;;;;4998772;28;20107;-77
2022/11/14 05:43:44;;;;;;;34.10;12.80;;;2.70;99.90;;;;;;5014728;28;20121;-77
2022/11/14 05:46:12;;;;;;;35.58;13.55;;;2.70;99.90;;;;;;5015771;28;20160;-77
2022/11/14 05:48:38;;;;;;;34.43;12.70;;;2.70;99.90;;;;;;5015927;28;20026;-77
2022/11/14 05:51:05;;;;;;;37.83;14.68;;;2.70;99.90;;;;;;5014304;28;20041;-77
2022/11/14 05:53:33;;;;;;;35.35;12.60;;;2.60;99.90;;;;;;5015553;28;20400;-77
2022/11/14 05:56:04;;;;;;;32.25;11.88;;;2.60;99.90;;;;;;4997676;28;20025;-78
2022/11/14 05:58:31;;;;;;;33.35;11.73;;;2.60;99.90;;;;;;4997990;28;20026;-78
2022/11/14 06:01:03;;;;;;;31.23;11.73;;;;;;;;;;5015417;28;20025;-78
2022/11/14 06:03:33;;;;;;;32.85;12.55;;;2.60;99.90;;;;;;5015146;28;20076;-78
2022/11/14 06:06:01;;;;;;;31.95;12.13;;;2.60;99.90;;;;;;5015920;28;20079;-79
2022/11/14 06:08:28;;;;;;;33.03;11.40;;;2.60;99.90;;;;;;4998458;28;20022;-79
2022/11/14 06:10:54;;;;;;;32.72;12.63;;;2.60;99.90;;;;;;5016277;28;20041;-79
2022/11/14 06:13:19;;;;;;;34.05;11.65;;;2.60;99.90;;;;;;5016389;28;20038;-79
2022/11/14 06:15:45;;;;;;;32.92;12.88;;;2.60;99.90;;;;;;5015887;28;20018;-79
2022/11/14 06:18:10;;;;;;;31.38;12.60;;;2.60;99.90;;;;;;5016075;28;20022;-78
2022/11/14 06:20:36;;;;;;;33.53;12.40;;;2.60;99.90;;;;;;5015693;28;20500;-79
2022/11/14 06:23:01;;;;;;;31.92;12.23;;;2.60;99.90;;;;;;5014089;28;20389;-79
2022/11/14 06:25:27;;;;;;;29.75;11.80;;;2.60;99.90;;;;;;5015089;28;20100;-79
2022/11/14 06:27:52;;;;;;;30.92;12.32;;;2.60;99.90;;;;;;5014729;28;20464;-79
2022/11/14 06:30:18;;;;;;;26.67;11.15;;;2.40;99.90;;;;;;5014358;28;20033;-79
2022/11/14 06:32:43;;;;;;;32.65;11.68;;;2.60;99.90;;;;;;4998503;28;20396;-79
2022/11/14 06:35:10;;;;;;;34.28;11.75;;;;;;;;;;5016140;28;20038;-79
2022/11/14 06:37:36;;;;;;;35.72;11.52;;;2.60;99.90;;;;;;5014752;28;20026;-79
2022/11/14 06:40:01;;;;;;;28.67;11.43;;;2.60;99.90;;;;;;4998188;28;20481;-79
2022/11/14 06:42:27;;;;;;;30.27;10.48;;;2.60;99.90;;;;;;5015306;28;20025;-79
2022/11/14 06:44:53;;;;;;;34.80;10.82;;;2.60;99.90;;;;;;5013831;28;20015;-79
2022/11/14 06:47:18;;;;;;;28.35;11.05;;;2.50;99.90;;;;;;5015027;28;20101;-79
2022/11/14 06:49:44;;;;;;;32.83;12.02;;;2.50;99.90;;;;;;5014052;28;20060;-78
2022/11/14 06:52:09;;;;;;;31.23;10.18;;;2.50;99.90;;;;;;4997573;28;20491;-78
2022/11/14 06:54:35;;;;;;;32.70;11.55;;;2.50;99.90;;;;;;5014999;28;20520;-79
2022/11/14 06:57:00;;;;;;;27.77;10.35;;;2.50;99.90;;;;;;5016814;28;20092;-79
2022/11/14 06:59:26;;;;;;;31.90;10.63;;;2.50;99.90;;;;;;5016372;28;20057;-79
2022/11/14 07:01:51;;;;;;;31.50;12.10;;;2.50;99.90;;;;;;5015807;28;20022;-79
2022/11/14 07:04:17;;;;;;;33.92;11.80;;;2.50;99.90;;;;;;5015353;28;20459;-79
2022/11/14 07:06:42;;;;;;;32.10;11.40;;;2.50;99.90;;;;;;5015151;28;20501;-78
2022/11/14 07:09:09;;;;;;;31.38;11.20;;;2.50;99.90;;;;;;5015357;28;20021;-78
2022/11/14 07:11:35;;;;;;;30.27;10.35;;;2.50;99.90;;;;;;5015039;28;20495;-78
2022/11/14 07:14:02;;;;;;;30.83;11.48;;;2.50;99.90;;;;;;5015131;28;20093;-79
2022/11/14 07:16:34;;;;;;;27.02;10.20;;;2.50;99.90;;;;;;4997685;28;20498;-79
2022/11/14 07:19:01;;;;;;;29.85;11.75;;;2.50;99.90;;;;;;5015589;28;20026;-79
2022/11/14 07:21:29;;;;;;;30.48;10.65;;;2.50;99.90;;;;;;4997969;28;20025;-79
2022/11/14 07:23:55;;;;;;;32.50;11.13;;;2.50;99.90;;;;;;4997175;28;20025;-78
2022/11/14 07:26:21;;;;;;;31.90;10.55;;;2.60;99.90;;;;;;4996654;28;20026;-78
2022/11/14 07:28:47;;;;;;;26.38;9.93;;;2.60;99.90;;;;;;5014703;28;20030;-78
2022/11/14 07:31:15;;;;;;;31.15;10.63;;;2.70;99.90;;;;;;5014439;28;20029;-78
2022/11/14 07:33:41;;;;;;;28.17;10.90;;;2.70;99.90;;;;;;5012523;28;20384;-78
2022/11/14 07:36:08;;;;;;;30.35;10.60;;;2.70;99.90;;;;;;5014096;28;20080;-79
2022/11/14 07:38:35;;;;;;;28.77;10.10;;;2.70;99.90;;;;;;5013956;28;20383;-78
2022/11/14 07:41:14;;;;;;;27.85;10.07;;;2.80;99.90;;;;;;4996258;28;20075;-78
2022/11/14 07:43:41;;;;;;;32.15;10.63;;;2.80;99.90;;;;;;4996596;28;20033;-78
2022/11/14 07:46:12;;;;;;;30.30;10.82;;;2.90;99.90;;;;;;5014622;28;20041;-78
2022/11/14 07:48:38;;;;;;;27.55;9.00;;;3.00;99.90;;;;;;5014010;28;20446;-78
2022/11/14 07:51:06;;;;;;;26.20;9.75;;;3.00;99.90;;;;;;4996664;28;20065;-78
2022/11/14 07:53:33;;;;;;;30.60;10.43;;;3.10;99.90;;;;;;5013733;28;20120;-78
2022/11/14 07:56:08;;;;;;;30.05;11.05;;;3.10;99.90;;;;;;4996023;28;20033;-78
2022/11/14 07:58:35;;;;;;;26.98;11.60;;;3.20;99.90;;;;;;5014406;28;20037;-78
2022/11/14 08:01:01;;;;;;;29.85;11.25;;;3.30;99.90;;;;;;5016407;28;20018;-78
2022/11/14 08:03:27;;;;;;;27.13;10.18;;;3.40;99.90;;;;;;4999810;28;20037;-78
2022/11/14 08:06:04;;;;;;;24.83;9.75;;;3.50;99.90;;;;;;5015863;28;20022;-78
2022/11/14 08:08:30;;;;;;;27.73;9.65;;;3.50;99.90;;;;;;5017313;28;20037;-78
2022/11/14 08:10:59;;;;;;;25.95;10.00;;;3.70;99.90;;;;;;5017489;28;20026;-78
2022/11/14 08:13:26;;;;;;;26.70;9.80;;;3.70;99.90;;;;;;5017464;28;20033;-78
2022/11/14 08:15:52;;;;;;;25.58;9.65;;;;;;;;;;5017630;28;20068;-78
2022/11/14 08:18:18;;;;;;;23.48;9.27;;;3.90;99.90;;;;;;5016119;28;20056;-78
2022/11/14 08:20:44;;;;;;;25.13;9.75;;;;;;;;;;5017318;28;20101;-78
2022/11/14 08:23:10;;;;;;;25.13;10.23;;;4.10;99.90;;;;;;5016920;28;20030;-78
2022/11/14 08:25:36;;;;;;;24.55;9.13;;;4.20;99.90;;;;;;5017212;28;20018;-78
2022/11/14 08:28:02;;;;;;;25.75;9.52;;;4.20;99.90;;;;;;4999426;28;20068;-77
2022/11/14 08:30:27;;;;;;;24.08;9.48;;;4.30;99.90;;;;;;5016191;28;20120;-78
2022/11/14 08:32:53;;;;;;;23.63;9.13;;;4.40;99.90;;;;;;4999528;28;20036;-78
2022/11/14 08:35:19;;;;;;;23.80;8.85;;;4.50;99.90;;;;;;5016173;28;20489;-78
2022/11/14 08:37:44;;;;;;;26.33;10.35;;;4.50;99.90;;;;;;5016376;28;20431;-78
2022/11/14 08:40:11;;;;;;;23.40;8.65;;;4.60;99.90;;;;;;4999851;28;20014;-78
2022/11/14 08:42:37;;;;;;;21.23;9.45;;;4.70;99.90;;;;;;5017024;28;20392;-78
2022/11/14 08:45:02;;;;;;;23.02;9.02;;;4.90;99.90;;;;;;5017178;28;20026;-78
2022/11/14 08:47:28;;;;;;;21.65;9.10;;;4.90;99.90;;;;;;5016117;28;20434;-77
2022/11/14 08:49:54;;;;;;;22.58;8.88;;;5.00;99.90;;;;;;4998978;28;20029;-78
2022/11/14 08:52:20;;;;;;;21.33;8.43;;;5.20;99.90;;;;;;5016754;28;20032;-78
2022/11/14 08:54:46;;;;;;;23.60;8.05;;;6.70;99.90;;;;;;5015719;28;20061;-79
2022/11/14 08:57:14;;;;;;;21.25;8.15;;;5.30;99.90;;;;;;4999650;28;20021;-79
2022/11/14 08:59:42;;;;;;;21.40;8.80;;;5.50;99.90;;;;;;5017123;28;20049;-79
2022/11/14 09:02:15;;;;;;;15.05;5.60;;;5.50;99.90;;;;;;4999262;28;20472;-79
2022/11/14 09:04:41;;;;;;;19.42;7.35;;;5.70;99.90;;;;;;5017146;28;20025;-79
2022/11/14 09:07:07;;;;;;;16.80;7.03;;;5.70;99.90;;;;;;5017517;28;20484;-78
2022/11/14 09:09:32;;;;;;;19.52;8.05;;;5.80;99.90;;;;;;4998032;28;20116;-77
2022/11/14 09:11:58;;;;;;;21.70;8.20;;;6.00;99.90;;;;;;5014731;28;20556;-78
2022/11/14 09:14:23;;;;;;;19.88;7.35;;;6.10;99.90;;;;;;5014450;28;20069;-78
2022/11/14 09:16:49;;;;;;;14.93;7.18;;;6.10;99.90;;;;;;5014509;28;20473;-78
2022/11/14 09:19:15;;;;;;;18.13;7.85;;;;;;;;;;5014662;28;20030;-78
2022/11/14 09:21:41;;;;;;;18.90;7.53;;;6.30;99.90;;;;;;5014428;28;20089;-77
2022/11/14 09:24:07;;;;;;;20.50;7.97;;;6.50;99.90;;;;;;5015565;28;20053;-77
2022/11/14 09:26:33;;;;;;;18.63;8.25;;;6.50;99.90;;;;;;4998013;28;20030;-77
2022/11/14 09:29:00;;;;;;;14.05;6.50;;;6.60;99.90;;;;;;5015647;28;20041;-78
2022/11/14 09:31:26;;;;;;;21.40;8.23;;;6.80;99.90;;;;;;5015745;28;20022;-78
2022/11/14 09:33:52;;;;;;;15.65;6.25;;;6.90;99.90;;;;;;5015384;28;20041;-78
2022/11/14 09:36:18;;;;;;;17.73;7.40;;;7.00;99.90;;;;;;5015182;28;20033;-78
2022/11/14 09:38:44;;;;;;;18.92;7.50;;;7.00;99.90;;;;;;5014390;28;20029;-78
2022/11/14 09:41:23;;;;;;;19.52;6.97;;;7.10;99.90;;;;;;5015330;28;20100;-77
2022/11/14 09:44:06;;;;;;;15.45;6.35;;;7.20;99.90;;;;;;4997990;28;20022;-78
2022/11/14 09:46:38;;;;;;;16.55;6.03;;;7.30;99.90;;;;;;5014381;28;20034;-78
2022/11/14 09:49:16;;;;;;;15.18;6.43;;;7.30;99.90;;;;;;5015778;28;20053;-78
2022/11/14 09:51:48;;;;;;;15.15;5.88;;;7.50;99.90;;;;;;5015281;28;20476;-78
2022/11/14 09:54:14;;;;;;;18.10;6.60;;;;;;;;;;5014893;28;20030;-78
2022/11/14 09:56:40;;;;;;;15.75;6.72;;;7.60;99.90;;;;;;5015321;28;20480;-78
2022/11/14 09:59:10;;;;;;;13.43;5.60;;;7.70;99.90;;;;;;5015360;28;20026;-78
2022/11/14 10:02:15;;;;;;;13.73;6.10;;;7.80;99.90;;;;;;5015119;28;20034;-78
2022/11/14 10:05:02;;;;;;;12.55;5.55;;;8.00;99.90;;;;;;5014797;28;20030;-78
2022/11/14 10:07:59;;;;;;;11.07;5.43;;;8.20;99.90;;;;;;5013573;28;20053;-79
2022/11/14 10:10:41;;;;;;;15.85;5.13;;;8.30;99.90;;;;;;5015181;28;20564;-78
2022/11/14 10:13:32;;;;;;;12.75;5.78;;;8.30;99.90;;;;;;5013436;28;20026;-77
2022/11/14 10:16:04;;;;;;;11.23;4.63;;;8.50;99.90;;;;;;5014601;28;20477;-77
2022/11/14 10:18:53;;;;;;;10.70;5.35;;;8.60;99.90;;;;;;5015373;28;20136;-78
2022/11/14 10:21:53;;;;;;;15.05;5.30;;;8.70;99.90;;;;;;5012515;28;20440;-78
2022/11/14 10:24:36;;;;;;;15.10;5.38;;;8.70;99.90;;;;;;5013241;28;20040;-78
2022/11/14 10:27:17;;;;;;;11.93;5.35;;;8.70;99.90;;;;;;5014545;28;20117;-77
2022/11/14 10:29:55;;;;;;;11.10;5.03;;;8.90;99.90;;;;;;5014252;28;20040;-78
2022/11/14 10:32:29;;;;;;;12.32;5.47;;;8.80;99.90;;;;;;5014942;28;20065;-77
2022/11/14 10:35:13;;;;;;;10.13;5.18;;;8.80;99.90;;;;;;5014525;28;20080;-78
2022/11/14 10:38:10;;;;;;;10.65;5.53;;;8.90;99.90;;;;;;5014598;28;20029;-78
2022/11/14 10:40:44;;;;;;;13.82;5.68;;;8.90;99.90;;;;;;5011573;28;20546;-78
2022/11/14 10:43:38;;;;;;;12.52;6.00;;;9.00;99.90;;;;;;5016410;28;20037;-82
2022/11/14 10:46:26;;;;;;;14.68;5.38;;;9.10;99.90;;;;;;5017632;28;20113;-82
2022/11/14 10:48:52;;;;;;;12.93;5.13;;;9.10;99.90;;;;;;5000736;28;20500;-82
2022/11/14 10:51:32;;;;;;;13.57;5.57;;;9.20;99.90;;;;;;5000484;28;20447;-81
2022/11/14 10:54:04;;;;;;;12.02;5.60;;;;;;;;;;4999781;28;20472;-82
2022/11/14 10:56:30;;;;;;;9.68;5.13;;;9.30;99.90;;;;;;5017388;28;20084;-81
2022/11/14 10:58:55;;;;;;;12.35;6.20;;;9.30;99.90;;;;;;5017135;28;20026;-82
2022/11/14 11:01:38;;;;;;;11.50;5.65;;;9.40;99.90;;;;;;5017871;28;20026;-82
2022/11/14 11:04:25;;;;;;;12.25;5.70;;;9.50;99.90;;;;;;5000322;28;20026;-81
2022/11/14 11:07:06;;;;;;;14.30;6.45;;;9.60;99.90;;;;;;4991021;28;20110;-82
2022/11/14 11:12:40;;;;;;;10.93;5.90;;;9.70;99.90;;;;;;5017825;28;20037;-81
2022/11/14 11:15:30;;;;;;;10.38;5.55;;;9.80;99.90;;;;;;5017018;28;20033;-82
2022/11/14 11:18:05;;;;;;;15.48;6.55;;;9.90;99.90;;;;;;5016522;28;20365;-81
2022/11/14 11:20:37;;;;;;;13.18;6.18;;;9.90;99.90;;;;;;5015152;28;20536;-82
2022/11/14 11:23:04;;;;;;;14.10;5.88;;;10.00;99.90;;;;;;4999280;28;20029;-82
2022/11/14 11:25:32;;;;;;;13.05;6.18;;;10.00;99.90;;;;;;5016839;28;20037;-81
2022/11/14 11:30:26;;;;;;;13.38;6.60;;;10.10;99.90;;;;;;5052641;28;20048;-79
2022/11/14 11:32:52;;;;;;;10.32;5.30;;;;;;;;;;5057224;28;20383;-78
2022/11/14 11:35:17;;;;;;;12.93;6.18;;;10.20;99.90;;;;;;5058589;28;20029;-78
2022/11/14 11:37:43;;;;;;;13.98;6.63;;;10.40;99.90;;;;;;5039982;28;20360;-79
2022/11/14 11:40:15;;;;;;;12.85;6.22;;;10.50;99.90;;;;;;5057690;28;20044;-78
2022/11/14 11:42:58;;;;;;;14.10;6.53;;;10.50;99.90;;;;;;5058148;28;20025;-78
2022/11/14 11:45:29;;;;;;;14.75;6.22;;;10.60;99.90;;;;;;5039877;28;20035;-78
2022/11/14 11:47:59;;;;;;;15.38;5.90;;;10.70;99.90;;;;;;5039804;28;20117;-75
2022/11/14 11:50:28;;;;;;;10.65;6.10;;;10.80;99.90;;;;;;5042713;28;20027;-78
2022/11/14 11:53:10;;;;;;;17.55;7.57;;;10.90;99.90;;;;;;5057865;28;20029;-76
2022/11/14 11:55:42;;;;;;;12.55;5.75;;;10.90;99.90;;;;;;5043908;28;20029;-79
2022/11/14 11:58:26;;;;;;;15.77;7.13;;;11.10;99.90;;;;;;5044134;28;20021;-79
2022/11/14 12:00:54;;;;;;;11.77;6.25;;;11.10;99.90;;;;;;5062666;28;20055;-78
2022/11/14 12:03:21;;;;;;;13.60;6.05;;;11.20;99.90;;;;;;5043227;28;20088;-79
2022/11/14 12:06:00;;;;;;;13.32;6.47;;;11.20;99.90;;;;;;5060138;28;20391;-79
2022/11/14 12:08:51;;;;;;;12.77;6.07;;;11.20;99.90;;;;;;5042857;28;20483;-79
2022/11/14 12:11:33;;;;;;;11.95;5.95;;;11.30;99.90;;;;;;5062040;28;20020;-78
2022/11/14 12:14:11;;;;;;;17.35;6.18;;;11.50;99.90;;;;;;5042565;28;20021;-79
2022/11/14 12:16:56;;;;;;;10.88;5.75;;;11.50;99.90;;;;;;5059923;28;20033;-79
2022/11/14 12:19:30;;;;;;;11.50;5.70;;;11.50;99.90;;;;;;5060728;28;20032;-79
2022/11/14 12:22:29;;;;;;;14.65;5.88;;;11.50;99.90;;;;;;5042244;28;20021;-79
2022/11/14 12:25:39;;;;;;;20.00;6.18;;;11.50;99.90;;;;;;5059508;28;20055;-78
2022/11/14 12:28:40;;;;;;;13.43;6.30;;;11.60;99.90;;;;;;5022860;28;20032;-78
2022/11/14 12:31:11;;;;;;;11.20;5.68;;;11.60;99.90;;;;;;5037357;28;20041;-78
2022/11/14 12:33:42;;;;;;;13.23;6.00;;;11.60;99.90;;;;;;5040630;28;20369;-76
2022/11/14 12:36:11;;;;;;;14.77;6.47;;;11.60;99.90;;;;;;5056457;28;20025;-76
2022/11/14 12:38:51;;;;;;;13.52;6.20;;;11.60;99.90;;;;;;5040886;28;20025;-79
2022/11/14 12:41:43;;;;;;;11.30;6.28;;;11.50;99.90;;;;;;5059486;28;20383;-81
2022/11/14 12:44:27;;;;;;;13.25;6.15;;;11.40;99.90;;;;;;5036915;28;20033;-82
2022/11/14 12:47:04;;;;;;;13.88;7.10;;;11.50;99.90;;;;;;5041609;28;20029;-83
2022/11/14 12:49:52;;;;;;;14.23;6.18;;;11.40;99.90;;;;;;5041740;28;20413;-82
2022/11/14 12:52:39;;;;;;;13.20;7.15;;;11.10;99.90;;;;;;5041729;28;20108;-82
2022/11/14 12:55:23;;;;;;;13.82;7.88;;;11.10;99.90;;;;;;5042954;28;20040;-80
2022/11/14 12:58:09;;;;;;;16.70;8.18;;;8.20;99.90;;;;;;5043992;28;20024;-81
2022/11/14 13:01:03;;;;;;;18.33;9.13;;;11.00;99.90;;;;;;5002606;28;20086;-81
2022/11/14 13:04:05;;;;;;;25.73;11.25;;;10.80;99.90;;;;;;5060456;28;20025;-81